Time;durP1;ratioP1;P1;durP2;ratioP2;P2;SDS_P1;SDS_P2;PMS_P1;PMS_P2;Temp;Humidity;BMP_temperature;BMP_pressure;BME280_temperature;BME280_humidity;BME280_pressure;Samples;Min_cycle;Max_cycle;Signal;HPM_P1;HPM_P2
2022/03/17 00:02:16;;;;;;;42.92;27.80;;;;;;;;;;6220763;23;20008;-91
2022/03/17 00:04:42;;;;;;;46.80;27.17;;;;;;;;;;6194416;23;20264;-92
2022/03/17 00:07:08;;;;;;;43.75;28.25;;;;;;;;;;6194291;23;20012;-91
2022/03/17 00:09:34;;;;;;;42.38;27.45;;;;;;;;;;6220768;23;19997;-91
2022/03/17 00:12:00;;;;;;;40.92;27.33;;;;;;;;;;6221010;23;20092;-91
2022/03/17 00:14:26;;;;;;;47.97;28.77;;;;;;;;;;6220902;23;20016;-90
2022/03/17 00:16:52;;;;;;;40.30;26.63;;;;;;;;;;6222600;23;20348;-89
2022/03/17 00:19:19;;;;;;;45.63;27.45;;;;;;;;;;6222897;23;20390;-89
2022/03/17 00:21:45;;;;;;;38.35;27.88;;;;;;;;;;6222114;23;20379;-90
2022/03/17 00:24:11;;;;;;;48.50;28.48;;;;;;;;;;6222837;23;20008;-90
2022/03/17 00:26:38;;;;;;;44.08;28.17;;;;;;;;;;6196255;23;20012;-90
2022/03/17 00:29:07;;;;;;;42.92;28.17;;;;;;;;;;6222404;23;20035;-92
2022/03/17 00:31:33;;;;;;;49.72;29.23;;;;;;;;;;6196079;23;20008;-90
2022/03/17 00:34:00;;;;;;;44.35;28.00;;;;;;;;;;6195746;23;20371;-90
2022/03/17 00:36:26;;;;;;;46.72;28.65;;;;;;;;;;6196231;23;20390;-91
2022/03/17 00:38:52;;;;;;;46.42;28.58;;;;;;;;;;6196265;23;20481;-91
2022/03/17 00:41:18;;;;;;;41.58;27.65;;;;;;;;;;6222179;23;20371;-91
2022/03/17 00:43:44;;;;;;;46.45;29.90;;;;;;;;;;6222681;23;20001;-91
2022/03/17 00:46:10;;;;;;;46.80;28.65;;;;;;;;;;6222694;23;20001;-91
2022/03/17 00:48:36;;;;;;;49.20;28.92;;;;;;;;;;6222663;23;20076;-91
2022/03/17 00:51:02;;;;;;;47.55;30.40;;;;;;;;;;6196232;23;20438;-91
2022/03/17 00:53:28;;;;;;;52.13;30.75;;;;;;;;;;6222498;23;20004;-92
2022/03/17 00:55:55;;;;;;;46.97;29.58;;;;;;;;;;6222634;23;20007;-92
2022/03/17 00:58:22;;;;;;;47.92;30.13;;;;;;;;;;6222232;23;20028;-92
2022/03/17 01:00:48;;;;;;;47.50;29.58;;;;;;;;;;6222422;23;20032;-92
2022/03/17 01:03:14;;;;;;;50.30;29.13;;;;;;;;;;6222474;23;20007;-92
2022/03/17 01:05:41;;;;;;;46.38;29.85;;;;;;;;;;6221894;23;20380;-92
2022/03/17 01:08:07;;;;;;;46.65;29.35;;;;;;;;;;6222091;23;20390;-91
2022/03/17 01:10:34;;;;;;;60.03;35.45;;;;;;;;;;6222362;23;20311;-88
2022/03/17 01:13:02;;;;;;;56.17;33.97;;;;;;;;;;6221924;23;20011;-91
2022/03/17 01:15:29;;;;;;;54.20;31.77;;;;;;;;;;6222170;23;20081;-91
2022/03/17 01:17:55;;;;;;;45.67;28.95;;;;;;;;;;6195295;23;20004;-91
2022/03/17 01:20:21;;;;;;;51.30;30.40;;;;;;;;;;6222181;23;20005;-92
2022/03/17 01:22:48;;;;;;;50.53;32.33;;;;;;;;;;6221797;23;20095;-91
2022/03/17 01:25:14;;;;;;;54.70;34.15;;;;;;;;;;6222191;23;20011;-92
2022/03/17 01:27:40;;;;;;;57.45;33.95;;;;;;;;;;6221632;23;20003;-92
2022/03/17 01:30:10;;;;;;;50.55;31.95;;;;;;;;;;6222298;23;20005;-91
2022/03/17 01:32:38;;;;;;;77.57;45.05;;;;;;;;;;6222196;23;20004;-90
2022/03/17 01:35:05;;;;;;;65.50;38.25;;;;;;;;;;6221956;23;20359;-90
2022/03/17 01:37:31;;;;;;;56.25;36.58;;;;;;;;;;6222085;23;20012;-89
2022/03/17 01:39:57;;;;;;;55.55;33.47;;;;;;;;;;6221960;23;20005;-90
2022/03/17 01:42:23;;;;;;;54.53;34.78;;;;;;;;;;6195294;23;20079;-89
2022/03/17 01:44:50;;;;;;;56.25;34.10;;;;;;;;;;6222003;23;20001;-91
2022/03/17 01:47:29;;;;;;;52.30;32.28;;;;;;;;;;6221877;23;20051;-90
2022/03/17 01:50:15;;;;;;;55.20;32.13;;;;;;;;;;6195488;23;20008;-91
2022/03/17 01:52:42;;;;;;;53.70;34.15;;;;;;;;;;6221591;23;20067;-90
2022/03/17 01:55:08;;;;;;;55.22;33.80;;;;;;;;;;6222085;23;20007;-91
2022/03/17 01:57:35;;;;;;;54.55;34.50;;;;;;;;;;6195457;23;20010;-89
2022/03/17 02:00:01;;;;;;;51.83;33.45;;;;;;;;;;6221749;23;20011;-90
2022/03/17 02:02:27;;;;;;;54.00;33.00;;;;;;;;;;6221812;23;19993;-90
2022/03/17 02:04:54;;;;;;;58.28;34.97;;;;;;;;;;6221360;23;20000;-90
2022/03/17 02:07:21;;;;;;;52.25;33.28;;;;;;;;;;6195268;23;20005;-89
2022/03/17 02:09:48;;;;;;;54.03;35.53;;;;;;;;;;6221764;23;20320;-89
2022/03/17 02:14:59;;;;;;;57.60;36.35;;;;;;;;;;6221752;23;20051;-89
2022/03/17 02:17:27;;;;;;;57.08;33.90;;;;;;;;;;6195826;23;20364;-90
2022/03/17 02:19:53;;;;;;;56.40;33.63;;;;;;;;;;6221194;23;20020;-90
2022/03/17 02:22:21;;;;;;;53.85;33.60;;;;;;;;;;6221340;23;20020;-90
2022/03/17 02:27:36;;;;;;;53.45;32.30;;;;;;;;;;6221396;23;20052;-90
2022/03/17 02:30:03;;;;;;;51.42;31.52;;;;;;;;;;6221626;23;20071;-89
2022/03/17 02:32:30;;;;;;;49.28;32.00;;;;;;;;;;6221202;23;20005;-90
2022/03/17 02:34:56;;;;;;;50.38;32.15;;;;;;;;;;6221275;23;20012;-89
2022/03/17 02:37:24;;;;;;;50.05;32.83;;;;;;;;;;6194906;23;20450;-90
2022/03/17 02:39:50;;;;;;;55.47;33.28;;;;;;;;;;6221369;23;20024;-89
2022/03/17 02:42:18;;;;;;;53.70;32.20;;;;;;;;;;6221469;23;20004;-90
2022/03/17 02:44:45;;;;;;;53.33;32.95;;;;;;;;;;6195844;23;20055;-89
2022/03/17 02:47:11;;;;;;;51.80;32.42;;;;;;;;;;6221389;23;20063;-90
2022/03/17 02:49:37;;;;;;;53.17;32.65;;;;;;;;;;6220996;23;20008;-90
2022/03/17 02:52:03;;;;;;;55.53;34.63;;;;;;;;;;6221228;23;20139;-89
2022/03/17 02:54:29;;;;;;;57.45;34.40;;;;;;;;;;6194950;23;20263;-90
2022/03/17 02:56:55;;;;;;;53.00;33.17;;;;;;;;;;6221362;23;20008;-89
2022/03/17 02:59:22;;;;;;;54.20;33.72;;;;;;;;;;6220960;23;20004;-90
2022/03/17 03:01:48;;;;;;;57.25;33.75;;;;;;;;;;6170146;23;20363;-89
2022/03/17 03:04:16;;;;;;;54.15;34.72;;;;;;;;;;6221483;23;20497;-90
2022/03/17 03:06:43;;;;;;;57.38;33.42;;;;;;;;;;6220894;23;20038;-90
2022/03/17 03:09:10;;;;;;;57.55;34.78;;;;;;;;;;6221315;23;20008;-89
2022/03/17 03:11:36;;;;;;;58.53;34.83;;;;;;;;;;6221035;23;20004;-90
2022/03/17 03:14:02;;;;;;;58.17;35.28;;;;;;;;;;6220885;23;20039;-90
2022/03/17 03:16:28;;;;;;;61.80;37.83;;;;;;;;;;6195538;23;20008;-89
2022/03/17 03:18:54;;;;;;;58.10;36.47;;;;;;;;;;6220656;23;20275;-90
2022/03/17 03:21:20;;;;;;;59.58;35.53;;;;;;;;;;6220879;23;20070;-92
2022/03/17 03:23:46;;;;;;;55.15;34.85;;;;;;;;;;6220736;23;20019;-90
2022/03/17 03:26:12;;;;;;;51.72;32.53;;;;;;;;;;6221284;23;19997;-90
2022/03/17 03:28:39;;;;;;;52.60;32.75;;;;;;;;;;6221148;23;20000;-90
2022/03/17 03:31:06;;;;;;;52.88;35.17;;;;;;;;;;6220813;23;20009;-90
2022/03/17 03:33:32;;;;;;;52.70;33.83;;;;;;;;;;6220803;23;20082;-90
2022/03/17 03:38:43;;;;;;;50.75;33.70;;;;;;;;;;6220944;23;20020;-90
2022/03/17 03:41:09;;;;;;;55.55;35.28;;;;;;;;;;6194444;23;20032;-90
2022/03/17 03:43:35;;;;;;;56.17;34.58;;;;;;;;;;6194567;23;20000;-91
2022/03/17 03:46:01;;;;;;;50.85;33.20;;;;;;;;;;6194572;23;20007;-91
2022/03/17 03:48:27;;;;;;;53.28;35.25;;;;;;;;;;6221045;23;19997;-90
2022/03/17 03:50:53;;;;;;;53.20;34.72;;;;;;;;;;6221700;23;20040;-91
2022/03/17 03:53:19;;;;;;;52.25;34.70;;;;;;;;;;6196740;23;20083;-90
2022/03/17 03:55:45;;;;;;;51.78;34.28;;;;;;;;;;6223037;23;20008;-91
2022/03/17 03:58:12;;;;;;;51.63;33.88;;;;;;;;;;6222976;23;20011;-91
2022/03/17 04:00:41;;;;;;;55.58;35.75;;;;;;;;;;6222536;23;20023;-92
2022/03/17 04:03:07;;;;;;;54.22;35.55;;;;;;;;;;6222508;23;20000;-91
2022/03/17 04:05:34;;;;;;;58.05;36.35;;;;;;;;;;6223031;23;20054;-91
2022/03/17 04:08:00;;;;;;;63.05;38.72;;;;;;;;;;6222679;23;20001;-91
2022/03/17 04:10:27;;;;;;;60.22;37.17;;;;;;;;;;6222729;23;20015;-90
2022/03/17 04:12:53;;;;;;;55.67;35.63;;;;;;;;;;6222912;23;20043;-90
2022/03/17 04:15:19;;;;;;;55.88;36.42;;;;;;;;;;6222848;23;20008;-89
2022/03/17 04:17:45;;;;;;;57.88;36.42;;;;;;;;;;6222680;23;20004;-90
2022/03/17 04:20:12;;;;;;;55.40;35.90;;;;;;;;;;6222730;23;20005;-91
2022/03/17 04:22:38;;;;;;;59.65;36.67;;;;;;;;;;6222469;23;20398;-90
2022/03/17 04:25:04;;;;;;;55.55;35.65;;;;;;;;;;6222815;23;20071;-91
2022/03/17 04:27:30;;;;;;;60.13;37.65;;;;;;;;;;6222468;23;20000;-89
2022/03/17 04:29:56;;;;;;;55.95;36.67;;;;;;;;;;6222663;23;20003;-90
2022/03/17 04:32:22;;;;;;;59.60;37.53;;;;;;;;;;6222618;23;20004;-91
2022/03/17 04:34:49;;;;;;;56.60;33.60;;;;;;;;;;6222460;23;20067;-90
2022/03/17 04:37:15;;;;;;;50.95;33.03;;;;;;;;;;6222711;23;20011;-90
2022/03/17 04:39:41;;;;;;;53.63;32.65;;;;;;;;;;6196211;23;20000;-91
2022/03/17 04:42:08;;;;;;;52.80;34.55;;;;;;;;;;6222540;23;20073;-90
2022/03/17 04:44:34;;;;;;;59.53;37.03;;;;;;;;;;6222397;23;20013;-91
2022/03/17 04:47:00;;;;;;;60.33;38.30;;;;;;;;;;6222608;23;20004;-91
2022/03/17 04:49:26;;;;;;;58.38;37.05;;;;;;;;;;6222450;23;20252;-91
2022/03/17 04:51:52;;;;;;;55.08;36.35;;;;;;;;;;6195831;23;20021;-91
2022/03/17 04:54:18;;;;;;;54.75;34.83;;;;;;;;;;6222337;23;20000;-91
2022/03/17 04:56:44;;;;;;;51.30;30.83;;;;;;;;;;6196109;23;20009;-89
2022/03/17 04:59:10;;;;;;;47.97;31.50;;;;;;;;;;6195971;23;20000;-90
2022/03/17 05:01:36;;;;;;;49.45;32.13;;;;;;;;;;6221631;23;20083;-90
2022/03/17 05:04:03;;;;;;;49.15;31.42;;;;;;;;;;6195437;23;20004;-89
2022/03/17 05:06:29;;;;;;;47.45;31.75;;;;;;;;;;6222388;23;20000;-90
2022/03/17 05:08:55;;;;;;;55.70;35.10;;;;;;;;;;6222433;23;20001;-89
2022/03/17 05:11:22;;;;;;;52.92;35.13;;;;;;;;;;6222400;23;20012;-89
2022/03/17 05:13:48;;;;;;;51.15;34.03;;;;;;;;;;6221867;23;20379;-89
2022/03/17 05:16:14;;;;;;;49.35;31.98;;;;;;;;;;6221914;23;20012;-90
2022/03/17 05:18:40;;;;;;;46.67;30.88;;;;;;;;;;6222167;23;20026;-90
2022/03/17 05:21:06;;;;;;;50.53;32.78;;;;;;;;;;6221452;23;20139;-89
2022/03/17 05:23:33;;;;;;;48.38;31.67;;;;;;;;;;6220677;23;20012;-89
2022/03/17 05:26:00;;;;;;;48.05;31.05;;;;;;;;;;6195426;23;20356;-90
2022/03/17 05:28:26;;;;;;;52.45;32.97;;;;;;;;;;6195245;23;20028;-89
2022/03/17 05:30:53;;;;;;;50.03;32.97;;;;;;;;;;6195306;23;20008;-89
2022/03/17 05:33:19;;;;;;;49.55;32.45;;;;;;;;;;6221724;23;20000;-90
2022/03/17 05:35:45;;;;;;;46.58;31.63;;;;;;;;;;6222139;23;20050;-90
2022/03/17 05:38:12;;;;;;;46.55;31.27;;;;;;;;;;6222139;23;20043;-90
2022/03/17 05:40:39;;;;;;;45.13;30.50;;;;;;;;;;6222127;23;20004;-91
2022/03/17 05:43:06;;;;;;;49.83;31.13;;;;;;;;;;6221690;23;20386;-91
2022/03/17 05:45:32;;;;;;;54.03;33.33;;;;;;;;;;6221801;23;20005;-91
2022/03/17 05:48:00;;;;;;;52.65;35.60;;;;;;;;;;6221952;23;20000;-91
2022/03/17 05:50:31;;;;;;;48.58;34.20;;;;;;;;;;6221696;23;20356;-91
2022/03/17 05:52:57;;;;;;;53.55;35.47;;;;;;;;;;6222153;23;20375;-90
2022/03/17 05:55:24;;;;;;;59.53;38.67;;;;;;;;;;6221331;23;20009;-90
2022/03/17 05:57:51;;;;;;;113.00;56.30;;;;;;;;;;6221664;23;20029;-90
2022/03/17 06:00:23;;;;;;;134.82;70.07;;;;;;;;;;6221702;23;20024;-89
2022/03/17 06:02:49;;;;;;;93.80;55.38;;;;;;;;;;6221308;23;20004;-88
2022/03/17 06:05:15;;;;;;;69.00;43.60;;;;;;;;;;6221475;23;20000;-90
2022/03/17 06:07:44;;;;;;;57.28;37.53;;;;;;;;;;6221649;23;20024;-89
2022/03/17 06:10:11;;;;;;;74.43;46.92;;;;;;;;;;6221137;23;20020;-90
2022/03/17 06:12:37;;;;;;;77.03;48.40;;;;;;;;;;6221136;23;20083;-89
2022/03/17 06:15:04;;;;;;;88.90;50.80;;;;;;;;;;6221494;23;20094;-90
2022/03/17 06:17:43;;;;;;;108.30;56.28;;;;;;;;;;6221642;23;20054;-90
2022/03/17 06:20:11;;;;;;;97.38;52.08;;;;;;;;;;6194995;23;20008;-88
2022/03/17 06:22:38;;;;;;;62.03;38.63;;;;;;;;;;6222347;23;20008;-91
2022/03/17 06:25:04;;;;;;;55.15;37.08;;;;;;;;;;6221273;23;20012;-91
2022/03/17 06:27:30;;;;;;;56.97;37.35;;;;;;;;;;6220726;23;20001;-91
2022/03/17 06:29:57;;;;;;;52.72;35.20;;;;;;;;;;6221015;23;19997;-92
2022/03/17 06:32:24;;;;;;;58.88;38.67;;;;;;;;;;6220981;23;20005;-93
2022/03/17 06:34:50;;;;;;;61.08;38.08;;;;;;;;;;6221240;23;20001;-91
2022/03/17 06:37:16;;;;;;;115.07;53.13;;;;;;;;;;6221140;23;20000;-91
2022/03/17 06:39:42;;;;;;;85.05;44.42;;;;;;;;;;6221248;23;19997;-89
2022/03/17 06:42:08;;;;;;;50.35;32.28;;;;;;;;;;6221423;23;20005;-89
2022/03/17 06:44:34;;;;;;;46.60;30.80;;;;;;;;;;6222389;23;20051;-90
2022/03/17 06:47:00;;;;;;;47.70;32.15;;;;;;;;;;6221191;23;20004;-89
2022/03/17 06:49:26;;;;;;;47.38;32.60;;;;;;;;;;6221369;23;19996;-92
2022/03/17 06:52:30;;;;;;;46.95;31.58;;;;;;;;;;6220898;23;20012;-91
2022/03/17 06:54:56;;;;;;;48.45;33.05;;;;;;;;;;6220936;23;20372;-93
2022/03/17 06:57:23;;;;;;;46.00;32.65;;;;;;;;;;6195132;23;20009;-92
2022/03/17 06:59:49;;;;;;;47.15;32.35;;;;;;;;;;6221381;23;20020;-90
2022/03/17 07:02:16;;;;;;;47.83;34.05;;;;;;;;;;6221142;23;20008;-91
2022/03/17 07:04:42;;;;;;;47.38;33.22;;;;;;;;;;6194540;23;20273;-89
2022/03/17 07:07:09;;;;;;;48.40;32.83;;;;;;;;;;6220898;23;20000;-92
2022/03/17 07:09:35;;;;;;;53.95;37.50;;;;;;;;;;6221218;23;20023;-91
2022/03/17 07:12:01;;;;;;;76.05;46.85;;;;;;;;;;6194921;23;20015;-91
2022/03/17 07:14:27;;;;;;;49.40;35.03;;;;;;;;;;6194462;23;20005;-92
2022/03/17 07:16:53;;;;;;;43.47;31.67;;;;;;;;;;6221035;23;20007;-92
2022/03/17 07:19:19;;;;;;;49.03;33.15;;;;;;;;;;6220953;23;20007;-92
2022/03/17 07:21:45;;;;;;;54.33;36.28;;;;;;;;;;6194479;23;20259;-91
2022/03/17 07:24:12;;;;;;;54.97;36.35;;;;;;;;;;6194815;23;20013;-92
2022/03/17 07:26:40;;;;;;;48.95;34.97;;;;;;;;;;6196828;23;20000;-92
2022/03/17 07:29:06;;;;;;;49.30;33.78;;;;;;;;;;6196122;23;20001;-90
2022/03/17 07:31:33;;;;;;;51.58;34.42;;;;;;;;;;6223315;23;20047;-91
2022/03/17 07:34:02;;;;;;;47.55;32.90;;;;;;;;;;6222783;23;20011;-92
2022/03/17 07:36:28;;;;;;;45.72;31.75;;;;;;;;;;6222972;23;20004;-92
2022/03/17 07:38:58;;;;;;;49.50;32.97;;;;;;;;;;6222675;23;20299;-92
2022/03/17 07:41:24;;;;;;;50.35;34.25;;;;;;;;;;6222861;23;20009;-91
2022/03/17 07:43:51;;;;;;;47.72;33.53;;;;;;;;;;6222994;23;20023;-91
2022/03/17 07:46:18;;;;;;;47.10;33.63;;;;;;;;;;6223137;23;20004;-92
2022/03/17 07:48:44;;;;;;;45.20;32.80;;;;;;;;;;6223273;23;20029;-91
2022/03/17 07:54:14;;;;;;;47.97;32.60;;;;;;;;;;6222728;23;20020;-91
2022/03/17 07:56:41;;;;;;;46.33;33.25;;;;;;;;;;6222908;23;20009;-92
2022/03/17 07:59:08;;;;;;;50.55;34.17;;;;;;;;;;6196571;23;20072;-91
2022/03/17 08:01:34;;;;;;;48.25;32.63;;;;;;;;;;6196093;23;20059;-92
2022/03/17 08:04:00;;;;;;;47.90;32.28;;;;;;;;;;6223172;23;20005;-93
2022/03/17 08:06:27;;;;;;;47.13;33.30;;;;;;;;;;6196229;23;20092;-92
2022/03/17 08:08:53;;;;;;;47.22;32.70;;;;;;;;;;6223096;23;20000;-92
2022/03/17 08:11:23;;;;;;;48.08;34.78;;;;;;;;;;6222614;23;20001;-92
2022/03/17 08:13:49;;;;;;;46.70;32.83;;;;;;;;;;6222639;23;20000;-92
2022/03/17 08:16:15;;;;;;;47.22;34.22;;;;;;;;;;6222786;23;20005;-91
2022/03/17 08:18:42;;;;;;;49.75;35.05;;;;;;;;;;6222873;23;20032;-91
2022/03/17 08:21:08;;;;;;;46.97;32.55;;;;;;;;;;6222465;23;20047;-92
2022/03/17 08:23:34;;;;;;;50.58;32.33;;;;;;;;;;6222339;23;20017;-91
2022/03/17 08:26:00;;;;;;;53.40;35.15;;;;;;;;;;6222765;23;20008;-91
2022/03/17 08:28:26;;;;;;;50.58;34.80;;;;;;;;;;6195522;23;20007;-91
2022/03/17 08:30:53;;;;;;;47.33;33.08;;;;;;;;;;6222080;23;20013;-92
2022/03/17 08:33:19;;;;;;;50.95;34.45;;;;;;;;;;6222425;23;20004;-92
2022/03/17 08:35:45;;;;;;;46.28;33.00;;;;;;;;;;6195297;23;20005;-90
2022/03/17 08:38:12;;;;;;;47.72;33.35;;;;;;;;;;6195650;23;20028;-92
2022/03/17 08:40:40;;;;;;;52.50;35.38;;;;;;;;;;6196543;23;20095;-92
2022/03/17 08:43:07;;;;;;;49.47;35.28;;;;;;;;;;6222178;23;20075;-91
2022/03/17 08:51:03;;;;;;;49.88;37.08;;;;;;;;;;6221793;23;20096;-90
2022/03/17 08:53:29;;;;;;;51.10;36.88;;;;;;;;;;6195315;23;20371;-90
2022/03/17 08:55:55;;;;;;;51.03;34.95;;;;;;;;;;6221260;23;19997;-91
2022/03/17 08:58:23;;;;;;;51.45;34.42;;;;;;;;;;6197378;23;20008;-91
2022/03/17 09:00:49;;;;;;;57.60;36.72;;;;;;;;;;6222298;23;20000;-92
2022/03/17 09:03:15;;;;;;;52.95;35.03;;;;;;;;;;6195948;23;20005;-92
2022/03/17 09:08:45;;;;;;;47.38;33.72;;;;;;;;;;6222067;23;20011;-87
2022/03/17 09:11:14;;;;;;;58.67;39.92;;;;;;;;;;6221779;23;20063;-88
2022/03/17 09:13:40;;;;;;;48.53;35.92;;;;;;;;;;6222433;23;20008;-86
2022/03/17 09:16:06;;;;;;;251.45;79.35;;;;;;;;;;6222408;23;20000;-86
2022/03/17 09:18:33;;;;;;;49.75;35.80;;;;;;;;;;6222002;23;20439;-89
2022/03/17 09:21:03;;;;;;;50.35;35.35;;;;;;;;;;6221387;23;20001;-89
2022/03/17 09:23:29;;;;;;;83.00;58.33;;;;;;;;;;6195637;23;20023;-88
2022/03/17 09:25:56;;;;;;;83.38;58.35;;;;;;;;;;6195652;23;20012;-86
2022/03/17 09:28:22;;;;;;;67.63;47.03;;;;;;;;;;6221930;23;20001;-87
2022/03/17 09:30:50;;;;;;;51.10;36.05;;;;;;;;;;6222252;23;20011;-88
2022/03/17 09:33:16;;;;;;;50.08;35.22;;;;;;;;;;6221983;23;20411;-88
2022/03/17 09:35:42;;;;;;;45.30;32.17;;;;;;;;;;6221590;23;20387;-87
2022/03/17 09:38:08;;;;;;;45.65;33.53;;;;;;;;;;6222224;23;20000;-88
2022/03/17 09:40:38;;;;;;;55.90;37.65;;;;;;;;;;6221404;23;20008;-88
2022/03/17 09:43:21;;;;;;;51.58;31.55;;;;;;;;;;6221968;23;20260;-88
2022/03/17 09:45:50;;;;;;;43.83;27.85;;;;;;;;;;6221923;23;20067;-87
2022/03/17 09:48:17;;;;;;;35.67;22.65;;;;;;;;;;6194628;23;20000;-88
2022/03/17 09:50:45;;;;;;;32.33;19.98;;;;;;;;;;6221422;23;20076;-88
2022/03/17 09:53:12;;;;;;;30.70;18.13;;;;;;;;;;6194816;23;20013;-88
2022/03/17 09:55:43;;;;;;;27.05;15.50;;;;;;;;;;6195687;23;20009;-88
2022/03/17 09:58:10;;;;;;;30.20;16.02;;;;;;;;;;6185745;23;20008;-88
2022/03/17 10:00:48;;;;;;;24.00;16.15;;;;;;;;;;6221338;23;20400;-85
2022/03/17 10:03:21;;;;;;;25.35;15.55;;;;;;;;;;6221543;23;20393;-88
2022/03/17 10:05:48;;;;;;;29.88;17.58;;;;;;;;;;6221634;23;20071;-85
2022/03/17 10:08:15;;;;;;;24.02;16.27;;;;;;;;;;6195180;23;20417;-85
2022/03/17 10:10:42;;;;;;;31.25;16.65;;;;;;;;;;6222407;23;20040;-88
2022/03/17 10:13:11;;;;;;;27.38;17.63;;;;;;;;;;6194727;23;20004;-90
2022/03/17 10:15:37;;;;;;;31.45;19.60;;;;;;;;;;6221495;23;20007;-88
2022/03/17 10:18:23;;;;;;;27.92;19.92;;;;;;;;;;6221918;23;20000;-88
2022/03/17 10:21:05;;;;;;;28.23;17.20;;;;;;;;;;6221103;23;20004;-88
2022/03/17 10:23:31;;;;;;;31.13;18.98;;;;;;;;;;6221318;23;20020;-89
2022/03/17 10:25:57;;;;;;;25.48;17.25;;;;;;;;;;6221380;23;20066;-89
2022/03/17 10:28:26;;;;;;;22.63;14.85;;;;;;;;;;6221780;23;20091;-88
2022/03/17 10:31:02;;;;;;;29.42;17.70;;;;;;;;;;6221646;23;20259;-86
2022/03/17 10:33:29;;;;;;;27.88;17.58;;;;;;;;;;6195135;23;20092;-89
2022/03/17 10:35:56;;;;;;;33.58;17.35;;;;;;;;;;6220963;23;20011;-89
2022/03/17 10:38:23;;;;;;;32.70;19.55;;;;;;;;;;6195111;23;20087;-88
2022/03/17 10:41:07;;;;;;;31.30;18.25;;;;;;;;;;6220981;23;20392;-89
2022/03/17 10:43:34;;;;;;;29.67;18.60;;;;;;;;;;6196031;23;20005;-88
2022/03/17 10:46:07;;;;;;;28.75;17.13;;;;;;;;;;6220924;23;20000;-88
2022/03/17 10:48:33;;;;;;;27.35;17.63;;;;;;;;;;6194876;23;20008;-88
2022/03/17 10:50:59;;;;;;;29.08;19.00;;;;;;;;;;6194895;23;20004;-88
2022/03/17 10:53:29;;;;;;;36.35;20.80;;;;;;;;;;6195015;23;20009;-89
2022/03/17 10:56:10;;;;;;;33.72;19.92;;;;;;;;;;6221425;23;20348;-89
2022/03/17 10:58:43;;;;;;;30.20;20.55;;;;;;;;;;6221354;23;20084;-88
2022/03/17 11:01:09;;;;;;;48.25;30.83;;;;;;;;;;6220830;23;20001;-88
2022/03/17 11:03:35;;;;;;;33.97;22.08;;;;;;;;;;6194757;23;20092;-88
2022/03/17 11:06:03;;;;;;;36.55;21.25;;;;;;;;;;6221287;23;20000;-88
2022/03/17 11:08:31;;;;;;;38.72;23.00;;;;;;;;;;6220949;23;20291;-88
2022/03/17 11:10:57;;;;;;;37.50;24.70;;;;;;;;;;6195080;23;20083;-87
2022/03/17 11:13:24;;;;;;;33.80;22.38;;;;;;;;;;6221185;23;20075;-87
2022/03/17 11:16:02;;;;;;;37.30;23.83;;;;;;;;;;6194779;23;20001;-86
2022/03/17 11:18:32;;;;;;;40.88;25.08;;;;;;;;;;6194488;23;20044;-90
2022/03/17 11:21:19;;;;;;;40.78;23.42;;;;;;;;;;6220652;23;20371;-82
2022/03/17 11:23:55;;;;;;;30.13;20.10;;;;;;;;;;6218724;23;20043;-84
2022/03/17 11:26:28;;;;;;;31.08;20.52;;;;;;;;;;6220142;23;20005;-91
2022/03/17 11:29:07;;;;;;;27.90;19.88;;;;;;;;;;6194118;23;20008;-92
2022/03/17 11:31:52;;;;;;;31.17;20.08;;;;;;;;;;6220976;23;20004;-93
2022/03/17 11:34:37;;;;;;;26.90;18.80;;;;;;;;;;6220583;23;20079;-94
2022/03/17 11:37:23;;;;;;;32.40;20.13;;;;;;;;;;6220931;23;20241;-92
2022/03/17 11:39:58;;;;;;;34.92;20.10;;;;;;;;;;6194706;23;20005;-93
2022/03/17 11:42:30;;;;;;;27.90;18.05;;;;;;;;;;6220714;23;20015;-90
2022/03/17 11:44:56;;;;;;;;;;;;;;;;;;6221321;23;20043;-88
2022/03/17 11:47:29;;;;;;;24.92;17.67;;;;;;;;;;6221241;23;19903;-90
2022/03/17 11:49:55;;;;;;;27.50;19.17;;;;;;;;;;6221392;23;20248;-90
2022/03/17 11:52:21;;;;;;;31.45;20.95;;;;;;;;;;6221243;23;20007;-91
2022/03/17 11:54:47;;;;;;;30.83;19.33;;;;;;;;;;6194227;23;20020;-89
2022/03/17 11:57:14;;;;;;;30.42;20.58;;;;;;;;;;6220740;23;20379;-88
2022/03/17 11:59:55;;;;;;;33.05;20.23;;;;;;;;;;6220423;23;20288;-88
2022/03/17 12:02:28;;;;;;;30.77;19.13;;;;;;;;;;6221067;23;20068;-88
2022/03/17 12:04:54;;;;;;;26.88;18.40;;;;;;;;;;6194551;23;20087;-89
2022/03/17 12:07:20;;;;;;;35.83;22.30;;;;;;;;;;6220259;23;19993;-89
2022/03/17 12:09:47;;;;;;;31.48;20.70;;;;;;;;;;6193970;23;20005;-89
2022/03/17 12:12:33;;;;;;;25.85;17.17;;;;;;;;;;6221887;23;20014;-88
2022/03/17 12:15:00;;;;;;;26.88;18.98;;;;;;;;;;6222630;23;20024;-88
2022/03/17 12:17:27;;;;;;;31.98;19.80;;;;;;;;;;6222198;23;20012;-89
2022/03/17 12:20:07;;;;;;;26.45;17.58;;;;;;;;;;6196241;23;20015;-89
2022/03/17 12:22:37;;;;;;;26.08;18.35;;;;;;;;;;6195977;23;20100;-88
2022/03/17 12:25:14;;;;;;;32.28;19.38;;;;;;;;;;6222889;23;20069;-89
2022/03/17 12:27:40;;;;;;;33.47;20.50;;;;;;;;;;6196433;23;20007;-89
2022/03/17 12:30:08;;;;;;;32.67;19.98;;;;;;;;;;6222545;23;20039;-90
2022/03/17 12:32:34;;;;;;;36.75;21.67;;;;;;;;;;6222221;23;20055;-89
2022/03/17 12:35:01;;;;;;;35.35;20.30;;;;;;;;;;6222280;23;20009;-89
2022/03/17 12:37:28;;;;;;;31.17;19.52;;;;;;;;;;6222851;23;20000;-89
2022/03/17 12:39:55;;;;;;;35.33;21.13;;;;;;;;;;6222466;23;20022;-90
2022/03/17 12:42:22;;;;;;;30.15;19.70;;;;;;;;;;6222515;23;20004;-89
2022/03/17 12:44:50;;;;;;;31.85;20.27;;;;;;;;;;6222344;23;20359;-89
2022/03/17 12:47:17;;;;;;;26.98;18.10;;;;;;;;;;6222384;23;20001;-90
2022/03/17 12:49:43;;;;;;;32.17;19.05;;;;;;;;;;6222227;23;19997;-90
2022/03/17 12:52:13;;;;;;;29.77;19.40;;;;;;;;;;6222759;23;20020;-90
2022/03/17 12:54:39;;;;;;;28.05;18.67;;;;;;;;;;6222400;23;20007;-90
2022/03/17 12:57:05;;;;;;;27.17;17.85;;;;;;;;;;6222208;23;20083;-89
2022/03/17 12:59:33;;;;;;;29.75;17.88;;;;;;;;;;6195889;23;20007;-90
2022/03/17 13:02:00;;;;;;;32.80;19.17;;;;;;;;;;6222505;23;20031;-90
2022/03/17 13:04:29;;;;;;;35.95;22.00;;;;;;;;;;6195999;23;20000;-90
2022/03/17 13:06:58;;;;;;;37.40;23.00;;;;;;;;;;6222195;23;20087;-90
2022/03/17 13:09:29;;;;;;;34.78;23.60;;;;;;;;;;6195422;23;20047;-90
2022/03/17 13:14:53;;;;;;;34.72;23.23;;;;;;;;;;6222326;23;20070;-90
2022/03/17 13:17:35;;;;;;;42.00;26.13;;;;;;;;;;6221909;23;20005;-90
2022/03/17 13:20:01;;;;;;;46.47;28.10;;;;;;;;;;6195369;23;20371;-90
2022/03/17 13:22:33;;;;;;;43.97;26.55;;;;;;;;;;6195363;23;20494;-90
2022/03/17 13:25:06;;;;;;;44.53;27.90;;;;;;;;;;6195749;23;20009;-91
2022/03/17 13:27:33;;;;;;;37.70;24.67;;;;;;;;;;6221838;23;20004;-90
2022/03/17 13:30:02;;;;;;;38.92;24.90;;;;;;;;;;6222237;23;19996;-90
2022/03/17 13:32:28;;;;;;;32.55;22.45;;;;;;;;;;6195089;23;20000;-90
2022/03/17 13:34:58;;;;;;;35.03;22.63;;;;;;;;;;6221989;23;20252;-90
2022/03/17 13:37:45;;;;;;;47.53;29.33;;;;;;;;;;6221467;23;20004;-90
2022/03/17 13:40:16;;;;;;;33.30;20.42;;;;;;;;;;6221915;23;20375;-90
2022/03/17 13:43:01;;;;;;;35.50;20.50;;;;;;;;;;6221953;23;20359;-91
2022/03/17 13:45:34;;;;;;;51.72;33.63;;;;;;;;;;6221862;23;20072;-90
2022/03/17 13:48:08;;;;;;;39.42;25.05;;;;;;;;;;6221837;23;20072;-90
2022/03/17 13:50:38;;;;;;;30.20;20.08;;;;;;;;;;6195695;23;20028;-91
2022/03/17 13:53:08;;;;;;;33.45;19.55;;;;;;;;;;6221221;23;20371;-91
2022/03/17 13:55:42;;;;;;;28.15;19.40;;;;;;;;;;6221746;23;20008;-91
2022/03/17 13:58:21;;;;;;;28.35;17.08;;;;;;;;;;6195024;23;20005;-91
2022/03/17 14:00:51;;;;;;;23.80;15.13;;;;;;;;;;6221187;23;20024;-91
2022/03/17 14:03:24;;;;;;;22.23;15.82;;;;;;;;;;6221488;23;20279;-94
2022/03/17 14:06:21;;;;;;;25.27;16.77;;;;;;;;;;6221407;23;20004;-95
2022/03/17 14:08:51;;;;;;;27.08;16.92;;;;;;;;;;6221907;23;20256;-93
2022/03/17 14:11:19;;;;;;;25.55;17.15;;;;;;;;;;6221335;23;20268;-95
2022/03/17 14:13:49;;;;;;;38.78;17.02;;;;;;;;;;6195188;23;20275;-95
2022/03/17 14:16:16;;;;;;;20.08;13.88;;;;;;;;;;6221286;23;20016;-93
2022/03/17 14:18:43;;;;;;;23.52;14.70;;;;;;;;;;6221743;23;20005;-95
2022/03/17 14:21:10;;;;;;;20.08;15.20;;;;;;;;;;6194550;23;20013;-95
2022/03/17 14:26:22;;;;;;;33.83;19.23;;;;;;;;;;6221398;23;20024;-95
2022/03/17 14:28:48;;;;;;;32.45;17.13;;;;;;;;;;6194997;23;20375;-94
2022/03/17 14:31:17;;;;;;;22.10;13.50;;;;;;;;;;6221340;23;20020;-96
2022/03/17 14:33:44;;;;;;;23.70;16.08;;;;;;;;;;6220842;23;20368;-94
2022/03/17 14:36:11;;;;;;;41.25;25.52;;;;;;;;;;6195125;23;20004;-95
2022/03/17 14:38:38;;;;;;;22.55;15.50;;;;;;;;;;6221408;23;20004;-95
2022/03/17 14:41:06;;;;;;;18.73;12.75;;;;;;;;;;6194915;23;20047;-95
2022/03/17 14:43:32;;;;;;;16.65;11.57;;;;;;;;;;6221311;23;20001;-95
2022/03/17 14:45:58;;;;;;;22.58;13.02;;;;;;;;;;6221015;23;20005;-95
2022/03/17 14:48:24;;;;;;;22.02;12.50;;;;;;;;;;6219648;23;20001;-94